sensor_id;sensor_type;location;lat;lon;timestamp;pressure;altitude;pressure_sealevel;temperature;humidity
67842;BME280;54642;59.126;37.876;2023-02-15T00:01:42;100664.16;;;-1.45;68.85
67842;BME280;54642;59.126;37.876;2023-02-15T00:04:09;100606.22;;;-1.84;68.79
67842;BME280;54642;59.126;37.876;2023-02-15T00:06:35;100646.28;;;-1.63;68.94
67842;BME280;54642;59.126;37.876;2023-02-15T00:09:01;100664.56;;;-1.54;68.59
67842;BME280;54642;59.126;37.876;2023-02-15T00:11:28;100543.94;;;-2.25;68.74
67842;BME280;54642;59.126;37.876;2023-02-15T00:16:38;100657.00;;;-1.69;68.97
67842;BME280;54642;59.126;37.876;2023-02-15T00:19:04;100595.53;;;-2.09;68.85
67842;BME280;54642;59.126;37.876;2023-02-15T00:21:32;100665.25;;;-1.73;68.71
67842;BME280;54642;59.126;37.876;2023-02-15T00:24:00;100670.25;;;-1.75;68.37
67842;BME280;54642;59.126;37.876;2023-02-15T00:26:27;100654.00;;;-1.93;68.71
67842;BME280;54642;59.126;37.876;2023-02-15T00:28:53;100666.88;;;-1.74;68.66
67842;BME280;54642;59.126;37.876;2023-02-15T00:31:20;100668.34;;;-1.79;68.83
67842;BME280;54642;59.126;37.876;2023-02-15T00:33:47;100679.38;;;-1.78;68.90
67842;BME280;54642;59.126;37.876;2023-02-15T00:36:12;100671.56;;;-1.81;69.18
67842;BME280;54642;59.126;37.876;2023-02-15T00:38:38;100674.06;;;-1.98;69.42
67842;BME280;54642;59.126;37.876;2023-02-15T00:41:06;100619.03;;;-2.28;69.52
67842;BME280;54642;59.126;37.876;2023-02-15T00:43:33;100681.78;;;-1.96;69.28
67842;BME280;54642;59.126;37.876;2023-02-15T00:46:01;100670.84;;;-2.10;69.57
67842;BME280;54642;59.126;37.876;2023-02-15T00:48:28;100683.25;;;-2.00;69.52
67842;BME280;54642;59.126;37.876;2023-02-15T00:50:56;100631.38;;;-2.20;69.54
67842;BME280;54642;59.126;37.876;2023-02-15T00:53:23;100615.00;;;-2.25;69.34
67842;BME280;54642;59.126;37.876;2023-02-15T00:55:49;100702.50;;;-1.88;69.23
67842;BME280;54642;59.126;37.876;2023-02-15T00:58:15;100691.72;;;-1.84;69.12
67842;BME280;54642;59.126;37.876;2023-02-15T01:00:43;100629.00;;;-2.32;69.31
67842;BME280;54642;59.126;37.876;2023-02-15T01:03:10;100654.72;;;-2.25;69.37
67842;BME280;54642;59.126;37.876;2023-02-15T01:05:36;100649.50;;;-2.28;69.24
67842;BME280;54642;59.126;37.876;2023-02-15T01:08:03;100702.53;;;-2.03;69.29
67842;BME280;54642;59.126;37.876;2023-02-15T01:10:29;100704.47;;;-2.14;69.57
67842;BME280;54642;59.126;37.876;2023-02-15T01:12:56;100667.88;;;-2.33;69.76
67842;BME280;54642;59.126;37.876;2023-02-15T01:15:23;100693.50;;;-2.13;69.78
67842;BME280;54642;59.126;37.876;2023-02-15T01:17:49;100702.03;;;-2.13;69.80
67842;BME280;54642;59.126;37.876;2023-02-15T01:20:23;100582.22;;;-2.81;69.80
67842;BME280;54642;59.126;37.876;2023-02-15T01:22:50;100697.84;;;-2.27;69.77
67842;BME280;54642;59.126;37.876;2023-02-15T01:25:17;100708.44;;;-2.34;69.76
67842;BME280;54642;59.126;37.876;2023-02-15T01:27:43;100700.97;;;-2.31;69.83
67842;BME280;54642;59.126;37.876;2023-02-15T01:30:10;100655.03;;;-2.65;69.91
67842;BME280;54642;59.126;37.876;2023-02-15T01:32:36;100713.03;;;-2.42;70.00
67842;BME280;54642;59.126;37.876;2023-02-15T01:35:02;100667.69;;;-2.65;70.08
67842;BME280;54642;59.126;37.876;2023-02-15T01:37:30;100707.09;;;-2.42;69.94
67842;BME280;54642;59.126;37.876;2023-02-15T01:39:57;100658.22;;;-2.83;70.01
67842;BME280;54642;59.126;37.876;2023-02-15T01:42:26;100738.50;;;-2.40;70.19
67842;BME280;54642;59.126;37.876;2023-02-15T01:44:54;100745.69;;;-2.33;70.02
67842;BME280;54642;59.126;37.876;2023-02-15T01:47:45;100733.19;;;-2.30;70.15
67842;BME280;54642;59.126;37.876;2023-02-15T01:50:20;100738.78;;;-2.36;70.02
67842;BME280;54642;59.126;37.876;2023-02-15T01:56:06;100745.06;;;-2.44;70.25
67842;BME280;54642;59.126;37.876;2023-02-15T01:58:35;100700.34;;;-2.72;70.47
67842;BME280;54642;59.126;37.876;2023-02-15T02:01:04;100727.41;;;-2.57;70.46
67842;BME280;54642;59.126;37.876;2023-02-15T02:06:30;100738.94;;;-2.47;70.42
67842;BME280;54642;59.126;37.876;2023-02-15T02:08:57;100731.09;;;-2.52;70.51
67842;BME280;54642;59.126;37.876;2023-02-15T02:11:24;100754.06;;;-2.49;70.36
67842;BME280;54642;59.126;37.876;2023-02-15T02:13:50;100745.50;;;-2.51;70.54
67842;BME280;54642;59.126;37.876;2023-02-15T02:24:45;100750.03;;;-2.60;70.36
67842;BME280;54642;59.126;37.876;2023-02-15T02:33:06;100761.69;;;-2.64;70.48
67842;BME280;54642;59.126;37.876;2023-02-15T02:41:20;100764.53;;;-2.73;70.59
67842;BME280;54642;59.126;37.876;2023-02-15T02:44:05;100785.75;;;-2.57;70.89
67842;BME280;54642;59.126;37.876;2023-02-15T02:46:39;100772.47;;;-2.53;70.76
67842;BME280;54642;59.126;37.876;2023-02-15T02:49:08;100677.50;;;-3.15;70.69
67842;BME280;54642;59.126;37.876;2023-02-15T02:51:33;100753.69;;;-2.70;70.71
67842;BME280;54642;59.126;37.876;2023-02-15T02:54:01;100770.97;;;-2.64;70.62
67842;BME280;54642;59.126;37.876;2023-02-15T02:56:34;100790.75;;;-2.59;70.76
67842;BME280;54642;59.126;37.876;2023-02-15T02:59:10;100763.56;;;-2.75;70.70
67842;BME280;54642;59.126;37.876;2023-02-15T03:01:48;100786.66;;;-2.70;70.63
67842;BME280;54642;59.126;37.876;2023-02-15T03:04:23;100671.31;;;-3.33;70.76
67842;BME280;54642;59.126;37.876;2023-02-15T03:07:02;100742.78;;;-2.97;70.74
67842;BME280;54642;59.126;37.876;2023-02-15T03:09:35;100789.91;;;-2.73;70.83
67842;BME280;54642;59.126;37.876;2023-02-15T03:12:13;100774.78;;;-2.71;71.08
67842;BME280;54642;59.126;37.876;2023-02-15T03:14:45;100775.75;;;-2.69;70.61
67842;BME280;54642;59.126;37.876;2023-02-15T03:17:13;100791.25;;;-2.64;70.61
67842;BME280;54642;59.126;37.876;2023-02-15T03:19:43;100768.34;;;-2.79;71.19
67842;BME280;54642;59.126;37.876;2023-02-15T03:22:15;100787.38;;;-2.73;70.70
67842;BME280;54642;59.126;37.876;2023-02-15T03:27:15;100791.47;;;-2.75;70.94
67842;BME280;54642;59.126;37.876;2023-02-15T03:29:46;100800.50;;;-2.65;70.84
67842;BME280;54642;59.126;37.876;2023-02-15T03:32:14;100786.50;;;-2.73;70.81
67842;BME280;54642;59.126;37.876;2023-02-15T03:34:41;100798.56;;;-2.69;70.81
67842;BME280;54642;59.126;37.876;2023-02-15T03:37:22;100799.00;;;-2.76;70.75
67842;BME280;54642;59.126;37.876;2023-02-15T03:39:55;100803.47;;;-2.72;70.58
67842;BME280;54642;59.126;37.876;2023-02-15T03:42:29;100748.97;;;-3.07;70.62
67842;BME280;54642;59.126;37.876;2023-02-15T03:45:18;100804.84;;;-2.77;70.59
67842;BME280;54642;59.126;37.876;2023-02-15T03:47:48;100822.78;;;-2.74;70.84
67842;BME280;54642;59.126;37.876;2023-02-15T03:50:24;100792.00;;;-2.94;70.87
67842;BME280;54642;59.126;37.876;2023-02-15T03:53:12;100742.81;;;-3.11;70.94
67842;BME280;54642;59.126;37.876;2023-02-15T03:55:39;100820.44;;;-2.71;70.55
67842;BME280;54642;59.126;37.876;2023-02-15T03:58:05;100763.38;;;-3.06;70.59
67842;BME280;54642;59.126;37.876;2023-02-15T04:01:18;100837.16;;;-2.75;70.62
67842;BME280;54642;59.126;37.876;2023-02-15T04:04:03;100724.34;;;-3.36;70.68
67842;BME280;54642;59.126;37.876;2023-02-15T04:06:32;100755.81;;;-3.19;70.46
67842;BME280;54642;59.126;37.876;2023-02-15T04:08:57;100822.34;;;-2.82;70.50
67842;BME280;54642;59.126;37.876;2023-02-15T04:11:42;100810.94;;;-2.89;70.65
67842;BME280;54642;59.126;37.876;2023-02-15T04:14:07;100844.75;;;-2.75;70.52
67842;BME280;54642;59.126;37.876;2023-02-15T04:16:52;100847.81;;;-2.80;70.61
67842;BME280;54642;59.126;37.876;2023-02-15T04:19:17;100840.19;;;-2.80;70.50
67842;BME280;54642;59.126;37.876;2023-02-15T04:22:02;100838.16;;;-2.86;70.70
67842;BME280;54642;59.126;37.876;2023-02-15T04:24:47;100825.78;;;-2.95;70.81
67842;BME280;54642;59.126;37.876;2023-02-15T04:27:31;100843.63;;;-2.93;70.99
67842;BME280;54642;59.126;37.876;2023-02-15T04:29:57;100856.06;;;-2.83;70.49
67842;BME280;54642;59.126;37.876;2023-02-15T04:32:23;100861.25;;;-2.81;70.77
67842;BME280;54642;59.126;37.876;2023-02-15T04:34:49;100808.53;;;-3.14;70.75
67842;BME280;54642;59.126;37.876;2023-02-15T04:37:15;100825.88;;;-3.07;70.75
67842;BME280;54642;59.126;37.876;2023-02-15T04:39:41;100786.91;;;-3.22;70.54
67842;BME280;54642;59.126;37.876;2023-02-15T04:42:07;100864.66;;;-2.81;70.67
67842;BME280;54642;59.126;37.876;2023-02-15T04:44:33;100817.31;;;-3.09;70.66
67842;BME280;54642;59.126;37.876;2023-02-15T04:46:58;100862.41;;;-2.76;70.58
67842;BME280;54642;59.126;37.876;2023-02-15T04:49:24;100837.97;;;-3.02;70.53
67842;BME280;54642;59.126;37.876;2023-02-15T04:51:50;100868.59;;;-2.86;70.57
67842;BME280;54642;59.126;37.876;2023-02-15T04:54:16;100882.41;;;-2.81;70.69
67842;BME280;54642;59.126;37.876;2023-02-15T04:56:42;100860.59;;;-2.92;70.64
67842;BME280;54642;59.126;37.876;2023-02-15T04:59:11;100870.53;;;-2.82;70.70
67842;BME280;54642;59.126;37.876;2023-02-15T05:01:37;100866.22;;;-2.83;70.65
67842;BME280;54642;59.126;37.876;2023-02-15T05:04:03;100784.69;;;-3.31;70.90
67842;BME280;54642;59.126;37.876;2023-02-15T05:06:29;100880.16;;;-2.76;70.61
67842;BME280;54642;59.126;37.876;2023-02-15T05:08:55;100862.53;;;-2.88;70.49
67842;BME280;54642;59.126;37.876;2023-02-15T05:11:21;100881.94;;;-2.75;70.68
67842;BME280;54642;59.126;37.876;2023-02-15T05:13:47;100884.38;;;-2.77;70.46
67842;BME280;54642;59.126;37.876;2023-02-15T05:16:13;100871.28;;;-2.83;70.49
67842;BME280;54642;59.126;37.876;2023-02-15T05:18:38;100824.56;;;-3.15;70.45
67842;BME280;54642;59.126;37.876;2023-02-15T05:21:04;100877.28;;;-2.82;70.67
67842;BME280;54642;59.126;37.876;2023-02-15T05:23:30;100885.16;;;-2.78;70.56
67842;BME280;54642;59.126;37.876;2023-02-15T05:25:56;100896.16;;;-2.77;70.49
67842;BME280;54642;59.126;37.876;2023-02-15T05:28:54;100841.97;;;-3.06;70.67
67842;BME280;54642;59.126;37.876;2023-02-15T05:31:21;100852.41;;;-3.01;70.75
67842;BME280;54642;59.126;37.876;2023-02-15T05:33:47;100886.72;;;-2.80;70.77
67842;BME280;54642;59.126;37.876;2023-02-15T05:36:13;100892.84;;;-2.76;70.67
67842;BME280;54642;59.126;37.876;2023-02-15T05:38:39;100897.44;;;-2.71;70.69
67842;BME280;54642;59.126;37.876;2023-02-15T05:41:09;100911.06;;;-2.69;70.65
67842;BME280;54642;59.126;37.876;2023-02-15T05:43:36;100884.28;;;-2.78;70.69
67842;BME280;54642;59.126;37.876;2023-02-15T05:46:03;100842.47;;;-2.98;70.54
67842;BME280;54642;59.126;37.876;2023-02-15T05:48:29;100840.19;;;-2.94;70.38
67842;BME280;54642;59.126;37.876;2023-02-15T05:51:03;100913.09;;;-2.50;70.39
67842;BME280;54642;59.126;37.876;2023-02-15T05:53:31;100840.50;;;-2.89;70.10
67842;BME280;54642;59.126;37.876;2023-02-15T05:55:57;100915.13;;;-2.44;70.11
67842;BME280;54642;59.126;37.876;2023-02-15T05:58:29;100918.72;;;-2.40;69.88
67842;BME280;54642;59.126;37.876;2023-02-15T06:00:56;100864.25;;;-2.74;69.55
67842;BME280;54642;59.126;37.876;2023-02-15T06:03:23;100856.78;;;-2.85;69.67
67842;BME280;54642;59.126;37.876;2023-02-15T06:05:52;100916.75;;;-2.59;70.10
67842;BME280;54642;59.126;37.876;2023-02-15T06:08:18;100922.19;;;-2.53;70.00
67842;BME280;54642;59.126;37.876;2023-02-15T06:10:46;100928.84;;;-2.55;69.82
67842;BME280;54642;59.126;37.876;2023-02-15T06:13:12;100915.94;;;-2.58;69.85
67842;BME280;54642;59.126;37.876;2023-02-15T06:15:38;100928.63;;;-2.45;69.73
67842;BME280;54642;59.126;37.876;2023-02-15T06:18:04;100921.03;;;-2.58;69.76
67842;BME280;54642;59.126;37.876;2023-02-15T06:20:30;100873.16;;;-2.80;69.74
67842;BME280;54642;59.126;37.876;2023-02-15T06:22:56;100905.91;;;-2.57;70.02
67842;BME280;54642;59.126;37.876;2023-02-15T06:25:22;100868.97;;;-2.80;69.79
67842;BME280;54642;59.126;37.876;2023-02-15T06:27:50;100923.72;;;-2.42;69.99
67842;BME280;54642;59.126;37.876;2023-02-15T06:30:15;100899.25;;;-2.55;69.57
67842;BME280;54642;59.126;37.876;2023-02-15T06:32:41;100936.53;;;-2.25;69.74
67842;BME280;54642;59.126;37.876;2023-02-15T06:35:08;100932.94;;;-2.29;69.73
67842;BME280;54642;59.126;37.876;2023-02-15T06:37:33;100956.69;;;-2.28;69.58
67842;BME280;54642;59.126;37.876;2023-02-15T06:39:59;100948.13;;;-2.31;69.83
67842;BME280;54642;59.126;37.876;2023-02-15T06:42:25;100836.78;;;-2.94;69.63
67842;BME280;54642;59.126;37.876;2023-02-15T06:44:51;100947.41;;;-2.28;69.69
67842;BME280;54642;59.126;37.876;2023-02-15T06:47:17;100954.72;;;-2.19;69.66
67842;BME280;54642;59.126;37.876;2023-02-15T06:49:43;100948.81;;;-2.18;69.76
67842;BME280;54642;59.126;37.876;2023-02-15T06:52:09;100910.03;;;-2.31;69.60
67842;BME280;54642;59.126;37.876;2023-02-15T06:54:35;100933.78;;;-2.15;69.43
67842;BME280;54642;59.126;37.876;2023-02-15T06:57:01;100943.00;;;-2.02;69.28
67842;BME280;54642;59.126;37.876;2023-02-15T06:59:27;100902.00;;;-2.23;69.17
67842;BME280;54642;59.126;37.876;2023-02-15T07:01:52;100906.06;;;-2.25;69.07
67842;BME280;54642;59.126;37.876;2023-02-15T07:04:18;100974.84;;;-1.94;69.22
67842;BME280;54642;59.126;37.876;2023-02-15T07:06:44;100951.44;;;-2.03;69.43
67842;BME280;54642;59.126;37.876;2023-02-15T07:09:11;100960.88;;;-2.01;69.21
67842;BME280;54642;59.126;37.876;2023-02-15T07:11:38;100917.22;;;-2.23;69.22
67842;BME280;54642;59.126;37.876;2023-02-15T07:14:22;100981.81;;;-1.77;69.22
67842;BME280;54642;59.126;37.876;2023-02-15T07:16:48;100978.22;;;-1.65;68.94
67842;BME280;54642;59.126;37.876;2023-02-15T07:19:14;100955.50;;;-1.77;69.00
67842;BME280;54642;59.126;37.876;2023-02-15T07:21:39;100963.28;;;-1.61;68.90
67842;BME280;54642;59.126;37.876;2023-02-15T07:24:06;100909.00;;;-1.91;68.98
67842;BME280;54642;59.126;37.876;2023-02-15T07:26:32;100968.78;;;-1.53;68.78
67842;BME280;54642;59.126;37.876;2023-02-15T07:28:58;100924.84;;;-1.80;68.17
67842;BME280;54642;59.126;37.876;2023-02-15T07:31:24;100922.31;;;-1.80;68.48
67842;BME280;54642;59.126;37.876;2023-02-15T07:33:50;100942.56;;;-1.67;68.45
67842;BME280;54642;59.126;37.876;2023-02-15T07:36:16;100901.09;;;-1.96;68.57
67842;BME280;54642;59.126;37.876;2023-02-15T07:38:42;100977.81;;;-1.43;68.47
67842;BME280;54642;59.126;37.876;2023-02-15T07:41:10;100986.59;;;-1.38;68.39
67842;BME280;54642;59.126;37.876;2023-02-15T07:43:39;100979.78;;;-1.39;68.29
67842;BME280;54642;59.126;37.876;2023-02-15T07:46:09;100905.06;;;-1.71;68.01
67842;BME280;54642;59.126;37.876;2023-02-15T07:48:37;100935.03;;;-1.50;68.01
67842;BME280;54642;59.126;37.876;2023-02-15T07:51:05;100944.28;;;-1.38;67.75
67842;BME280;54642;59.126;37.876;2023-02-15T07:53:32;100979.84;;;-1.23;67.85
67842;BME280;54642;59.126;37.876;2023-02-15T07:55:59;100942.41;;;-1.55;67.72
67842;BME280;54642;59.126;37.876;2023-02-15T07:58:26;100977.13;;;-1.26;67.89
67842;BME280;54642;59.126;37.876;2023-02-15T08:01:13;100987.81;;;-1.17;67.68
67842;BME280;54642;59.126;37.876;2023-02-15T08:03:39;100981.69;;;-1.20;67.45
67842;BME280;54642;59.126;37.876;2023-02-15T08:06:05;100977.50;;;-1.20;67.46
67842;BME280;54642;59.126;37.876;2023-02-15T08:08:33;100950.75;;;-1.28;67.40
67842;BME280;54642;59.126;37.876;2023-02-15T08:11:05;100954.53;;;-1.21;67.21
67842;BME280;54642;59.126;37.876;2023-02-15T08:13:58;100993.97;;;-0.98;67.08
67842;BME280;54642;59.126;37.876;2023-02-15T08:16:49;100998.06;;;-0.70;67.03
67842;BME280;54642;59.126;37.876;2023-02-15T08:19:20;100991.03;;;-0.43;66.32
67842;BME280;54642;59.126;37.876;2023-02-15T08:21:49;100995.47;;;-0.24;65.80
67842;BME280;54642;59.126;37.876;2023-02-15T08:24:17;100925.50;;;-0.31;65.80
67842;BME280;54642;59.126;37.876;2023-02-15T08:26:43;100977.59;;;0.24;65.10
67842;BME280;54642;59.126;37.876;2023-02-15T08:29:13;100973.47;;;0.60;64.91
67842;BME280;54642;59.126;37.876;2023-02-15T08:31:39;100963.31;;;0.96;64.71
67842;BME280;54642;59.126;37.876;2023-02-15T08:34:08;100988.00;;;1.31;64.18
67842;BME280;54642;59.126;37.876;2023-02-15T08:36:34;100935.03;;;1.27;64.05
67842;BME280;54642;59.126;37.876;2023-02-15T08:39:02;100989.56;;;1.65;63.25
67842;BME280;54642;59.126;37.876;2023-02-15T08:41:34;100907.25;;;0.80;63.38
67842;BME280;54642;59.126;37.876;2023-02-15T08:44:02;100981.09;;;0.94;63.99
67842;BME280;54642;59.126;37.876;2023-02-15T08:46:31;100990.88;;;0.85;64.26
67842;BME280;54642;59.126;37.876;2023-02-15T08:48:57;101004.81;;;0.92;64.41
67842;BME280;54642;59.126;37.876;2023-02-15T08:51:26;100952.38;;;0.46;64.51
67842;BME280;54642;59.126;37.876;2023-02-15T08:53:55;100998.06;;;0.42;64.30
67842;BME280;54642;59.126;37.876;2023-02-15T08:56:24;101017.25;;;0.18;64.76
67842;BME280;54642;59.126;37.876;2023-02-15T08:58:52;101008.41;;;-0.05;65.18
67842;BME280;54642;59.126;37.876;2023-02-15T09:01:27;100949.69;;;-0.39;65.24
67842;BME280;54642;59.126;37.876;2023-02-15T09:03:58;101011.81;;;-0.04;64.99
67842;BME280;54642;59.126;37.876;2023-02-15T09:06:25;100978.03;;;-0.33;65.15
67842;BME280;54642;59.126;37.876;2023-02-15T09:08:52;101022.25;;;-0.16;65.22
67842;BME280;54642;59.126;37.876;2023-02-15T09:11:21;101015.66;;;-0.12;65.52
67842;BME280;54642;59.126;37.876;2023-02-15T09:13:59;101022.75;;;-0.07;65.38
67842;BME280;54642;59.126;37.876;2023-02-15T09:16:27;101016.16;;;-0.18;65.38
67842;BME280;54642;59.126;37.876;2023-02-15T09:18:55;101007.66;;;-0.18;65.43
67842;BME280;54642;59.126;37.876;2023-02-15T09:21:24;101008.16;;;-0.09;65.22
67842;BME280;54642;59.126;37.876;2023-02-15T09:23:51;100984.41;;;-0.41;65.13
67842;BME280;54642;59.126;37.876;2023-02-15T09:26:20;101031.72;;;-0.13;65.39
67842;BME280;54642;59.126;37.876;2023-02-15T09:28:47;101027.97;;;-0.20;65.45
67842;BME280;54642;59.126;37.876;2023-02-15T09:31:16;100979.94;;;-0.29;65.32
67842;BME280;54642;59.126;37.876;2023-02-15T09:33:45;101027.06;;;0.11;65.32
67842;BME280;54642;59.126;37.876;2023-02-15T09:36:20;100937.00;;;-0.54;65.07
67842;BME280;54642;59.126;37.876;2023-02-15T09:39:00;100970.97;;;-0.22;65.07
67842;BME280;54642;59.126;37.876;2023-02-15T09:44:39;101023.00;;;0.47;65.05
67842;BME280;54642;59.126;37.876;2023-02-15T09:53:27;100989.16;;;1.02;63.59
67842;BME280;54642;59.126;37.876;2023-02-15T09:56:06;101004.75;;;1.08;63.83
67842;BME280;54642;59.126;37.876;2023-02-15T10:09:48;101031.53;;;0.82;64.54
67842;BME280;54642;59.126;37.876;2023-02-15T10:15:10;101035.84;;;0.49;64.41
67842;BME280;54642;59.126;37.876;2023-02-15T10:23:05;101036.16;;;0.22;64.63
67842;BME280;54642;59.126;37.876;2023-02-15T10:28:56;101038.22;;;0.13;64.66
67842;BME280;54642;59.126;37.876;2023-02-15T10:31:34;101037.88;;;0.23;64.43
67842;BME280;54642;59.126;37.876;2023-02-15T10:34:34;100998.22;;;0.12;64.38
67842;BME280;54642;59.126;37.876;2023-02-15T10:45:32;101034.22;;;0.67;64.06
67842;BME280;54642;59.126;37.876;2023-02-15T10:50:59;101056.66;;;0.91;63.97
67842;BME280;54642;59.126;37.876;2023-02-15T10:53:34;101023.84;;;0.48;63.98
67842;BME280;54642;59.126;37.876;2023-02-15T10:56:12;101058.41;;;0.92;64.11
67842;BME280;54642;59.126;37.876;2023-02-15T11:01:19;101030.66;;;2.46;62.17
67842;BME280;54642;59.126;37.876;2023-02-15T11:06:29;100998.19;;;2.84;60.04
67842;BME280;54642;59.126;37.876;2023-02-15T11:09:10;101001.94;;;2.73;59.83
67842;BME280;54642;59.126;37.876;2023-02-15T11:11:41;101011.13;;;2.68;60.10
67842;BME280;54642;59.126;37.876;2023-02-15T11:14:21;101056.59;;;2.95;60.30
67842;BME280;54642;59.126;37.876;2023-02-15T11:16:52;101063.03;;;2.85;60.05
67842;BME280;54642;59.126;37.876;2023-02-15T11:19:24;101003.16;;;2.21;60.12
67842;BME280;54642;59.126;37.876;2023-02-15T11:21:59;101057.06;;;2.65;60.62
67842;BME280;54642;59.126;37.876;2023-02-15T11:24:29;101022.66;;;2.58;60.60
67842;BME280;54642;59.126;37.876;2023-02-15T11:27:05;101063.13;;;2.47;60.35
67842;BME280;54642;59.126;37.876;2023-02-15T11:30:02;101083.25;;;2.20;61.15
67842;BME280;54642;59.126;37.876;2023-02-15T11:37:41;101039.34;;;1.38;61.38
67842;BME280;54642;59.126;37.876;2023-02-15T11:40:19;101084.81;;;1.45;61.79
67842;BME280;54642;59.126;37.876;2023-02-15T11:42:48;100991.16;;;0.73;62.30
67842;BME280;54642;59.126;37.876;2023-02-15T11:45:28;101036.09;;;0.71;62.59
67842;BME280;54642;59.126;37.876;2023-02-15T11:47:57;101059.50;;;0.63;62.95
67842;BME280;54642;59.126;37.876;2023-02-15T11:50:26;101031.78;;;0.36;62.86
67842;BME280;54642;59.126;37.876;2023-02-15T11:52:58;101025.38;;;0.44;62.67
67842;BME280;54642;59.126;37.876;2023-02-15T11:55:25;101097.19;;;0.85;62.92
67842;BME280;54642;59.126;37.876;2023-02-15T12:00:41;101067.34;;;0.84;62.26
67842;BME280;54642;59.126;37.876;2023-02-15T12:03:43;101095.00;;;0.92;62.45
67842;BME280;54642;59.126;37.876;2023-02-15T12:06:16;101091.03;;;0.98;62.35
67842;BME280;54642;59.126;37.876;2023-02-15T12:08:48;101060.91;;;0.74;62.62
67842;BME280;54642;59.126;37.876;2023-02-15T12:11:19;101089.69;;;0.88;62.23
67842;BME280;54642;59.126;37.876;2023-02-15T12:14:14;101098.09;;;1.03;62.13
67842;BME280;54642;59.126;37.876;2023-02-15T12:16:48;101035.50;;;0.59;62.20
67842;BME280;54642;59.126;37.876;2023-02-15T12:19:39;101087.53;;;0.79;62.45
67842;BME280;54642;59.126;37.876;2023-02-15T12:22:11;101060.50;;;0.50;62.92
67842;BME280;54642;59.126;37.876;2023-02-15T12:24:45;101056.53;;;0.38;63.21
67842;BME280;54642;59.126;37.876;2023-02-15T12:29:46;101067.69;;;0.24;63.52
67842;BME280;54642;59.126;37.876;2023-02-15T12:32:22;101091.50;;;0.25;62.94
67842;BME280;54642;59.126;37.876;2023-02-15T12:34:51;101089.69;;;0.22;63.35
67842;BME280;54642;59.126;37.876;2023-02-15T12:37:24;101097.63;;;0.28;63.39
67842;BME280;54642;59.126;37.876;2023-02-15T12:39:58;101098.59;;;0.30;63.38
67842;BME280;54642;59.126;37.876;2023-02-15T12:42:26;101039.06;;;-0.03;63.41
67842;BME280;54642;59.126;37.876;2023-02-15T12:47:20;101105.00;;;0.38;63.33
67842;BME280;54642;59.126;37.876;2023-02-15T12:50:11;101099.88;;;0.38;62.98
67842;BME280;54642;59.126;37.876;2023-02-15T12:52:44;101108.84;;;0.47;63.04
67842;BME280;54642;59.126;37.876;2023-02-15T12:55:25;101108.66;;;0.44;62.62
67842;BME280;54642;59.126;37.876;2023-02-15T12:58:28;101109.31;;;0.40;63.13
67842;BME280;54642;59.126;37.876;2023-02-15T13:01:12;101124.25;;;0.33;63.02
67842;BME280;54642;59.126;37.876;2023-02-15T13:04:01;101119.31;;;0.20;63.09
67842;BME280;54642;59.126;37.876;2023-02-15T13:06:32;101082.47;;;-0.02;63.33
67842;BME280;54642;59.126;37.876;2023-02-15T13:09:17;101113.31;;;0.19;63.04
67842;BME280;54642;59.126;37.876;2023-02-15T13:11:46;101101.38;;;0.18;63.18
67842;BME280;54642;59.126;37.876;2023-02-15T13:14:20;101117.91;;;0.25;62.63
67842;BME280;54642;59.126;37.876;2023-02-15T13:16:50;101117.53;;;0.19;62.93
67842;BME280;54642;59.126;37.876;2023-02-15T13:19:18;101124.56;;;0.23;62.94
67842;BME280;54642;59.126;37.876;2023-02-15T13:21:48;101133.66;;;0.18;62.77
67842;BME280;54642;59.126;37.876;2023-02-15T13:24:22;101088.63;;;-0.13;62.96
67842;BME280;54642;59.126;37.876;2023-02-15T13:26:48;101133.44;;;-0.02;63.15
67842;BME280;54642;59.126;37.876;2023-02-15T13:29:22;101145.63;;;0.04;63.43
67842;BME280;54642;59.126;37.876;2023-02-15T13:31:53;101133.59;;;0.02;63.06
67842;BME280;54642;59.126;37.876;2023-02-15T13:34:35;101120.25;;;0.06;63.27
67842;BME280;54642;59.126;37.876;2023-02-15T13:40:00;101133.59;;;0.33;63.31
67842;BME280;54642;59.126;37.876;2023-02-15T13:45:52;101156.53;;;0.81;63.36
67842;BME280;54642;59.126;37.876;2023-02-15T13:51:13;101115.38;;;0.58;62.83
67842;BME280;54642;59.126;37.876;2023-02-15T14:01:50;101121.97;;;0.54;63.08
67842;BME280;54642;59.126;37.876;2023-02-15T14:04:46;101118.13;;;0.46;62.68
67842;BME280;54642;59.126;37.876;2023-02-15T14:07:34;101143.91;;;0.67;62.30
67842;BME280;54642;59.126;37.876;2023-02-15T14:15:58;101153.63;;;0.58;61.97
67842;BME280;54642;59.126;37.876;2023-02-15T14:18:48;101106.19;;;0.29;61.86
67842;BME280;54642;59.126;37.876;2023-02-15T14:21:32;101159.31;;;0.37;62.21
67842;BME280;54642;59.126;37.876;2023-02-15T14:24:18;101157.75;;;0.08;62.64
67842;BME280;54642;59.126;37.876;2023-02-15T14:26:56;101100.50;;;-0.45;63.13
67842;BME280;54642;59.126;37.876;2023-02-15T14:32:17;101168.19;;;-0.33;63.41
67842;BME280;54642;59.126;37.876;2023-02-15T14:34:54;101167.75;;;-0.41;63.57
67842;BME280;54642;59.126;37.876;2023-02-15T14:40:32;101190.41;;;-0.46;63.65
67842;BME280;54642;59.126;37.876;2023-02-15T14:48:55;101130.66;;;-0.96;63.86
67842;BME280;54642;59.126;37.876;2023-02-15T14:54:54;101158.50;;;-0.84;63.77
67842;BME280;54642;59.126;37.876;2023-02-15T15:05:29;101136.19;;;-1.31;64.25
67842;BME280;54642;59.126;37.876;2023-02-15T15:07:58;101196.06;;;-1.08;64.49
67842;BME280;54642;59.126;37.876;2023-02-15T15:12:53;101175.34;;;-1.42;64.42
67842;BME280;54642;59.126;37.876;2023-02-15T15:17:57;101164.88;;;-1.88;64.83
67842;BME280;54642;59.126;37.876;2023-02-15T15:25:57;101196.22;;;-2.15;65.26
67842;BME280;54642;59.126;37.876;2023-02-15T15:42:13;101220.31;;;-2.48;65.86
67842;BME280;54642;59.126;37.876;2023-02-15T15:50:46;101100.13;;;-3.39;66.17
67842;BME280;54642;59.126;37.876;2023-02-15T15:53:18;101220.00;;;-2.78;66.46